createdAt,value
2018-11-26T00:00:23.778Z,80.40
2018-11-26T00:02:52.453Z,80.40
2018-11-26T00:05:21.131Z,80.40
2018-11-26T00:08:06.293Z,80.30
2018-11-26T00:10:46.333Z,80.50
2018-11-26T00:13:15.014Z,80.30
2018-11-26T00:15:43.736Z,80.30
2018-11-26T00:18:12.474Z,80.20
2018-11-26T00:20:41.172Z,80.20
2018-11-26T00:23:09.848Z,80.10
2018-11-26T00:25:38.542Z,80.10
2018-11-26T00:28:07.202Z,80.00
2018-11-26T00:30:35.871Z,80.30
2018-11-26T00:33:04.745Z,80.20
2018-11-26T00:35:34.276Z,80.50
2018-11-26T00:38:02.954Z,80.30
2018-11-26T00:40:31.758Z,80.40
2018-11-26T00:43:00.417Z,80.70
2018-11-26T00:45:30.017Z,80.80
2018-11-26T00:47:58.713Z,80.90
2018-11-26T00:50:27.418Z,80.90
2018-11-26T00:52:56.113Z,81.00
2018-11-26T00:55:24.810Z,81.20
2018-11-26T00:57:53.513Z,81.10
2018-11-26T01:00:22.210Z,81.00
2018-11-26T01:02:50.877Z,81.00
2018-11-26T01:05:32.609Z,80.80
2018-11-26T01:08:01.278Z,81.00
2018-11-26T01:10:30.358Z,81.20
2018-11-26T01:12:59.041Z,81.10
2018-11-26T01:15:27.712Z,81.60
2018-11-26T01:17:56.409Z,81.10
2018-11-26T01:20:25.091Z,81.10
2018-11-26T01:22:53.745Z,81.20
2018-11-26T01:25:22.442Z,81.20
2018-11-26T01:27:51.115Z,81.00
2018-11-26T01:30:19.819Z,80.90
2018-11-26T01:32:48.500Z,81.10
2018-11-26T01:35:17.282Z,81.00
2018-11-26T01:37:45.963Z,80.90
2018-11-26T01:40:20.873Z,80.90
2018-11-26T01:42:49.829Z,80.80
2018-11-26T01:45:18.521Z,80.70
2018-11-26T01:47:47.193Z,80.70
2018-11-26T01:50:15.869Z,80.80
2018-11-26T01:52:44.544Z,80.60
2018-11-26T01:55:13.237Z,80.60
2018-11-26T01:57:41.983Z,80.50
2018-11-26T02:00:18.061Z,80.80
2018-11-26T02:02:46.793Z,80.70
2018-11-26T02:05:15.498Z,80.70
2018-11-26T02:07:44.165Z,80.80
2018-11-26T02:10:14.737Z,80.90
2018-11-26T02:12:43.421Z,81.70
2018-11-26T02:15:45.182Z,81.50
2018-11-26T02:18:13.882Z,81.50
2018-11-26T02:20:42.540Z,81.20
2018-11-26T02:23:11.208Z,81.50
2018-11-26T02:25:39.911Z,81.60
2018-11-26T02:28:08.597Z,81.70
2018-11-26T02:30:37.282Z,81.70
2018-11-26T02:33:06.049Z,81.70
2018-11-26T02:35:35.526Z,81.90
2018-11-26T02:38:04.245Z,81.90
2018-11-26T02:40:33.589Z,82.10
2018-11-26T02:43:02.276Z,82.10
2018-11-26T02:45:30.991Z,81.90
2018-11-26T02:47:59.710Z,82.00
2018-11-26T02:50:28.414Z,82.30
2018-11-26T02:52:57.113Z,82.80
2018-11-26T02:55:25.825Z,82.60
2018-11-26T02:57:54.534Z,82.90
2018-11-26T03:00:23.229Z,82.90
2018-11-26T03:02:51.998Z,82.90
2018-11-26T03:05:25.008Z,83.00
2018-11-26T03:07:53.825Z,83.00
2018-11-26T03:10:22.863Z,83.60
2018-11-26T03:12:51.557Z,83.50
2018-11-26T03:15:20.274Z,83.10
2018-11-26T03:17:48.957Z,82.90
2018-11-26T03:20:17.689Z,83.20
2018-11-26T03:22:46.373Z,83.20
2018-11-26T03:25:15.114Z,83.20
2018-11-26T03:27:43.773Z,83.30
2018-11-26T03:30:15.538Z,83.30
2018-11-26T03:32:44.244Z,83.10
2018-11-26T03:35:12.907Z,83.20
2018-11-26T03:37:41.586Z,83.00
2018-11-26T03:40:11.405Z,83.10
2018-11-26T03:42:40.137Z,82.90
2018-11-26T03:45:10.349Z,82.40
2018-11-26T03:47:39.163Z,82.20
2018-11-26T03:50:08.201Z,81.90
2018-11-26T03:52:36.874Z,81.70
2018-11-26T03:55:07.025Z,81.60
2018-11-26T03:57:35.701Z,81.70
2018-11-26T04:00:05.492Z,81.90
2018-11-26T04:02:34.157Z,82.10
2018-11-26T04:05:02.818Z,82.00
2018-11-26T04:07:31.537Z,81.90
2018-11-26T04:10:00.219Z,82.00
2018-11-26T04:12:28.897Z,81.90
2018-11-26T04:14:57.624Z,82.00
2018-11-26T04:17:32.981Z,81.90
2018-11-26T04:20:01.668Z,81.80
2018-11-26T04:27:30.673Z,82.00
2018-11-26T04:29:59.365Z,82.10
2018-11-26T04:32:28.128Z,81.80
2018-11-26T04:34:56.853Z,81.80
2018-11-26T04:37:25.553Z,81.40
2018-11-26T04:39:54.246Z,81.30
2018-11-26T04:42:22.979Z,81.50
2018-11-26T04:44:51.686Z,81.30
2018-11-26T04:47:20.370Z,81.50
2018-11-26T04:49:49.177Z,81.40
2018-11-26T04:52:17.875Z,81.30
2018-11-26T04:54:46.577Z,81.00
2018-11-26T04:57:15.293Z,80.90
2018-11-26T04:59:43.986Z,80.80
2018-11-26T05:02:12.695Z,81.20
2018-11-26T05:04:41.401Z,81.40
2018-11-26T05:07:10.158Z,81.30
2018-11-26T05:09:38.941Z,81.10
2018-11-26T05:12:07.637Z,80.80
2018-11-26T05:14:36.329Z,80.70
2018-11-26T05:17:05.412Z,80.60
2018-11-26T05:19:34.126Z,80.60
2018-11-26T05:22:02.809Z,81.50
2018-11-26T05:24:31.838Z,80.90
2018-11-26T05:27:00.510Z,80.80
2018-11-26T05:29:29.210Z,81.00
2018-11-26T05:31:57.904Z,81.10
2018-11-26T05:34:26.576Z,81.20
2018-11-26T05:36:55.273Z,81.00
2018-11-26T05:39:23.958Z,81.40
2018-11-26T05:41:52.621Z,81.30
2018-11-26T05:44:21.338Z,81.30
2018-11-26T05:46:50.006Z,80.80
2018-11-26T05:49:18.687Z,81.00
2018-11-26T05:51:47.349Z,81.10
2018-11-26T05:54:16.034Z,81.00
2018-11-26T05:56:44.720Z,80.90
2018-11-26T05:59:13.426Z,80.90
2018-11-26T06:01:42.094Z,80.90
2018-11-26T06:04:10.785Z,80.80
2018-11-26T06:06:39.479Z,80.70
2018-11-26T06:09:09.869Z,80.60
2018-11-26T06:11:39.870Z,81.00
2018-11-26T06:14:08.552Z,80.70
2018-11-26T06:16:37.485Z,80.80
2018-11-26T06:19:06.777Z,80.90
2018-11-26T06:21:35.685Z,80.60
2018-11-26T06:24:04.373Z,80.50
2018-11-26T06:26:33.100Z,80.50
2018-11-26T06:29:02.217Z,81.00
2018-11-26T06:31:30.937Z,81.70
2018-11-26T06:33:59.642Z,80.90
2018-11-26T06:36:28.325Z,80.50
2018-11-26T06:38:57.025Z,80.10
2018-11-26T06:41:25.690Z,80.00
2018-11-26T06:43:54.353Z,80.20
2018-11-26T06:46:23.042Z,80.10
2018-11-26T06:48:51.741Z,80.30
2018-11-26T06:51:20.430Z,80.40
2018-11-26T06:53:49.129Z,80.50
2018-11-26T06:56:17.918Z,80.60
2018-11-26T06:58:46.598Z,80.70
2018-11-26T07:01:15.273Z,80.60
2018-11-26T07:03:43.950Z,80.80
2018-11-26T07:06:12.623Z,80.80
2018-11-26T07:08:41.305Z,80.70
2018-11-26T07:11:09.976Z,81.00
2018-11-26T07:13:38.654Z,81.00
2018-11-26T07:16:07.359Z,80.80
2018-11-26T07:18:36.197Z,80.80
2018-11-26T07:21:06.014Z,80.70
2018-11-26T07:23:34.721Z,80.60
2018-11-26T07:26:03.496Z,80.70
2018-11-26T07:28:33.121Z,80.90
2018-11-26T07:31:01.904Z,80.80
2018-11-26T07:33:30.586Z,81.00
2018-11-26T07:35:59.281Z,81.00
2018-11-26T07:38:28.018Z,81.10
2018-11-26T07:40:56.729Z,81.10
2018-11-26T07:43:25.537Z,81.10
2018-11-26T07:45:54.239Z,81.10
2018-11-26T07:48:22.998Z,81.20
2018-11-26T07:50:51.682Z,81.10
2018-11-26T07:53:20.474Z,81.20
2018-11-26T07:55:49.138Z,80.80
2018-11-26T07:58:17.829Z,80.90
2018-11-26T08:00:46.534Z,80.80
2018-11-26T08:03:15.238Z,80.70
2018-11-26T08:05:43.934Z,80.70
2018-11-26T08:08:12.630Z,80.60
2018-11-26T08:10:41.319Z,80.50
2018-11-26T08:13:10.010Z,80.50
2018-11-26T08:15:38.754Z,80.40
2018-11-26T08:18:07.457Z,80.30
2018-11-26T08:20:36.177Z,80.20
2018-11-26T08:23:05.307Z,80.00
2018-11-26T08:25:34.010Z,80.10
2018-11-26T08:28:03.630Z,80.10
2018-11-26T08:30:32.495Z,80.10
2018-11-26T08:33:01.803Z,80.00
2018-11-26T08:35:31.220Z,80.30
2018-11-26T08:38:05.362Z,80.40
2018-11-26T08:40:39.529Z,81.10
2018-11-26T08:43:13.661Z,80.40
2018-11-26T08:45:49.353Z,80.60
2018-11-26T08:48:23.445Z,80.80
2018-11-26T08:50:52.205Z,81.00
2018-11-26T08:53:20.923Z,83.20
2018-11-26T08:55:49.625Z,81.40
2018-11-26T08:58:18.333Z,81.00
2018-11-26T09:00:47.322Z,81.00
2018-11-26T09:03:21.037Z,80.80
2018-11-26T09:06:00.254Z,81.00
2018-11-26T09:08:29.926Z,81.00
2018-11-26T09:10:58.802Z,80.80
2018-11-26T09:13:27.521Z,80.70
2018-11-26T09:15:56.238Z,80.70
2018-11-26T09:18:24.958Z,80.60
2018-11-26T09:20:53.666Z,80.60
2018-11-26T09:23:22.430Z,80.70
2018-11-26T09:25:51.158Z,80.80
2018-11-26T09:28:19.876Z,80.80
2018-11-26T09:30:48.577Z,80.60
2018-11-26T09:33:17.258Z,80.30
2018-11-26T09:35:45.954Z,80.30
2018-11-26T09:38:14.667Z,80.10
2018-11-26T09:40:43.359Z,80.00
2018-11-26T09:43:12.041Z,80.10
2018-11-26T09:45:40.786Z,79.60
2018-11-26T09:48:09.448Z,79.60
2018-11-26T09:50:38.133Z,78.60
2018-11-26T09:53:06.884Z,78.80
2018-11-26T09:55:35.569Z,78.80
2018-11-26T09:58:04.370Z,78.80
2018-11-26T10:00:33.086Z,78.40
2018-11-26T10:03:01.803Z,77.50
2018-11-26T10:05:30.514Z,78.00
2018-11-26T10:07:59.208Z,77.30
2018-11-26T10:10:28.030Z,77.60
2018-11-26T10:12:56.727Z,77.80
2018-11-26T10:15:26.235Z,77.90
2018-11-26T10:17:54.949Z,77.00
2018-11-26T10:20:23.643Z,77.80
2018-11-26T10:22:53.091Z,77.30
2018-11-26T10:25:22.598Z,77.40
2018-11-26T10:27:51.295Z,76.80
2018-11-26T10:30:23.347Z,76.50
2018-11-26T10:32:52.034Z,80.30
2018-11-26T10:35:21.101Z,76.30
2018-11-26T10:37:49.776Z,76.00
2018-11-26T10:40:21.959Z,75.90
2018-11-26T10:42:50.674Z,75.70
2018-11-26T10:45:20.292Z,74.90
2018-11-26T10:47:48.983Z,75.30
2018-11-26T10:50:18.957Z,74.40
2018-11-26T10:52:51.867Z,74.20
2018-11-26T10:55:22.004Z,73.60
2018-11-26T10:57:50.662Z,72.40
2018-11-26T11:00:31.573Z,73.00
2018-11-26T11:03:00.270Z,71.90
2018-11-26T11:05:28.962Z,72.50
2018-11-26T11:07:57.619Z,71.80
2018-11-26T11:10:28.585Z,71.30
2018-11-26T11:12:57.397Z,71.30
2018-11-26T11:15:26.138Z,70.20
2018-11-26T11:17:54.829Z,71.10
2018-11-26T11:20:25.325Z,71.50
2018-11-26T11:22:53.992Z,69.10
2018-11-26T11:25:23.054Z,72.00
2018-11-26T11:27:51.884Z,70.60
2018-11-26T11:30:21.818Z,71.40
2018-11-26T11:32:50.523Z,70.20
2018-11-26T11:35:19.502Z,69.80
2018-11-26T11:37:49.212Z,69.00
2018-11-26T11:40:29.703Z,71.40
2018-11-26T11:42:59.323Z,71.30
2018-11-26T11:45:28.738Z,70.60
2018-11-26T11:47:57.443Z,69.40
2018-11-26T11:50:26.183Z,67.70
2018-11-26T11:52:54.905Z,68.90
2018-11-26T11:55:24.798Z,70.70
2018-11-26T11:57:53.687Z,70.70
2018-11-26T12:00:37.635Z,70.40
2018-11-26T12:03:11.642Z,68.00
2018-11-26T12:05:40.340Z,69.70
2018-11-26T12:08:09.168Z,70.10
2018-11-26T12:10:37.912Z,69.20
2018-11-26T12:13:07.926Z,69.00
2018-11-26T12:15:38.064Z,69.70
2018-11-26T12:18:07.527Z,70.30
2018-11-26T12:20:36.491Z,68.80
2018-11-26T12:23:05.290Z,68.80
2018-11-26T12:25:34.043Z,70.70
2018-11-26T12:28:02.811Z,69.60
2018-11-26T12:30:33.038Z,69.60
2018-11-26T12:33:01.758Z,69.80
2018-11-26T12:35:30.448Z,69.70
2018-11-26T12:37:59.143Z,69.40
2018-11-26T12:40:27.837Z,69.50
2018-11-26T12:42:57.636Z,69.10
2018-11-26T12:45:28.238Z,68.60
2018-11-26T12:47:57.103Z,67.50
2018-11-26T12:50:25.830Z,68.10
2018-11-26T12:52:54.529Z,68.90
2018-11-26T12:55:23.930Z,68.50
2018-11-26T12:57:53.307Z,67.90
2018-11-26T13:00:23.117Z,67.20
2018-11-26T13:02:54.723Z,68.80
2018-11-26T13:05:23.451Z,68.60
2018-11-26T13:07:52.139Z,67.40
2018-11-26T13:10:21.963Z,67.80
2018-11-26T13:12:51.288Z,68.70
2018-11-26T13:15:21.178Z,68.70
2018-11-26T13:17:49.874Z,67.20
2018-11-26T13:20:20.986Z,68.00
2018-11-26T13:22:50.159Z,68.70
2018-11-26T13:25:21.906Z,67.80
2018-11-26T13:27:58.792Z,68.10
2018-11-26T13:30:29.691Z,67.90
2018-11-26T13:33:00.634Z,68.60
2018-11-26T13:35:29.308Z,67.90
2018-11-26T13:37:58.132Z,67.50
2018-11-26T13:40:26.708Z,67.90
2018-11-26T13:42:55.351Z,68.40
2018-11-26T13:45:29.598Z,68.30
2018-11-26T13:47:58.306Z,67.40
2018-11-26T13:50:30.242Z,68.20
2018-11-26T13:52:59.054Z,68.60
2018-11-26T13:55:27.727Z,68.30
2018-11-26T13:57:56.415Z,68.60
2018-11-26T14:00:25.094Z,68.60
2018-11-26T14:02:53.787Z,68.30
2018-11-26T14:05:22.459Z,68.30
2018-11-26T14:07:51.122Z,68.00
2018-11-26T14:10:21.903Z,68.60
2018-11-26T14:12:53.887Z,68.30
2018-11-26T14:15:22.564Z,68.60
2018-11-26T14:17:57.945Z,68.60
2018-11-26T14:20:26.642Z,68.60
2018-11-26T14:22:55.314Z,68.70
2018-11-26T14:25:24.035Z,68.50
2018-11-26T14:27:52.699Z,68.70
2018-11-26T14:30:23.971Z,69.30
2018-11-26T14:32:52.987Z,69.00
2018-11-26T14:35:21.819Z,69.70
2018-11-26T14:37:53.738Z,69.20
2018-11-26T14:40:25.647Z,69.20
2018-11-26T14:42:54.295Z,69.20
2018-11-26T14:45:22.995Z,69.10
2018-11-26T14:47:51.683Z,68.80
2018-11-26T14:50:20.363Z,69.40
2018-11-26T14:52:49.684Z,69.20
2018-11-26T14:55:21.733Z,69.20
2018-11-26T14:57:50.419Z,69.60
2018-11-26T15:00:19.687Z,69.10
2018-11-26T15:02:48.376Z,69.60
2018-11-26T15:05:17.155Z,70.30
2018-11-26T15:07:45.924Z,70.10
2018-11-26T15:10:17.766Z,70.80
2018-11-26T15:12:46.686Z,69.90
2018-11-26T15:15:18.559Z,69.90
2018-11-26T15:17:47.346Z,69.90
2018-11-26T15:20:19.867Z,70.20
2018-11-26T15:22:48.948Z,70.30
2018-11-26T15:25:20.822Z,71.30
2018-11-26T15:27:57.231Z,70.60
2018-11-26T15:30:25.947Z,70.60
2018-11-26T15:32:54.623Z,70.50
2018-11-26T15:35:23.935Z,71.80
2018-11-26T15:37:52.611Z,71.00
2018-11-26T15:40:21.821Z,72.10
2018-11-26T15:42:50.527Z,71.20
2018-11-26T15:45:20.507Z,71.50
2018-11-26T15:47:49.850Z,71.50
2018-11-26T15:50:18.573Z,71.60
2018-11-26T15:52:47.238Z,71.40
2018-11-26T15:55:17.452Z,71.80
2018-11-26T15:57:46.144Z,72.00
2018-11-26T16:00:17.923Z,71.90
2018-11-26T16:02:46.641Z,72.20
2018-11-26T16:05:18.554Z,72.30
2018-11-26T16:07:47.847Z,72.30
2018-11-26T16:10:16.562Z,72.20
2018-11-26T16:12:46.575Z,72.30
2018-11-26T16:15:19.570Z,72.70
2018-11-26T16:17:48.440Z,72.70
2018-11-26T16:20:18.672Z,72.60
2018-11-26T16:22:47.375Z,72.70
2018-11-26T16:25:18.388Z,73.10
2018-11-26T16:27:47.088Z,73.40
2018-11-26T16:30:16.583Z,73.40
2018-11-26T16:32:48.567Z,73.70
2018-11-26T16:35:22.362Z,73.80
2018-11-26T16:37:51.123Z,74.00
2018-11-26T16:40:26.339Z,74.10
2018-11-26T16:42:55.095Z,74.30
2018-11-26T16:45:25.187Z,74.20
2018-11-26T16:47:54.883Z,74.00
2018-11-26T16:50:24.933Z,74.40
2018-11-26T16:52:53.648Z,74.20
2018-11-26T16:55:22.331Z,73.80
2018-11-26T16:57:51.030Z,74.00
2018-11-26T17:00:22.716Z,73.90
2018-11-26T17:02:52.467Z,73.90
2018-11-26T17:05:31.098Z,73.90
2018-11-26T17:07:59.831Z,73.70
2018-11-26T17:10:28.551Z,73.70
2018-11-26T17:12:57.275Z,73.50
2018-11-26T17:15:25.958Z,73.00
2018-11-26T17:17:54.655Z,72.60
2018-11-26T17:20:23.370Z,72.40
2018-11-26T17:22:52.087Z,72.10
2018-11-26T17:25:20.815Z,71.70
2018-11-26T17:27:49.482Z,71.70
2018-11-26T17:30:23.862Z,71.30
2018-11-26T17:32:57.380Z,71.30
2018-11-26T17:35:26.104Z,71.20
2018-11-26T17:37:54.771Z,71.30
2018-11-26T17:40:24.246Z,71.00
2018-11-26T17:42:53.359Z,70.90
2018-11-26T17:45:22.743Z,71.60
2018-11-26T17:47:55.655Z,71.00
2018-11-26T17:50:26.603Z,71.00
2018-11-26T17:52:55.283Z,71.30
2018-11-26T17:55:23.978Z,71.70
2018-11-26T17:57:52.658Z,71.80
2018-11-26T18:00:29.795Z,71.90
2018-11-26T18:02:58.544Z,72.00
2018-11-26T18:05:28.555Z,72.10
2018-11-26T18:08:00.915Z,72.00
2018-11-26T18:10:29.614Z,72.20
2018-11-26T18:12:58.295Z,72.40
2018-11-26T18:15:26.966Z,72.60
2018-11-26T18:17:55.632Z,72.50
2018-11-26T18:20:24.326Z,72.70
2018-11-26T18:22:53.958Z,72.80
2018-11-26T18:25:23.611Z,72.90
2018-11-26T18:27:58.095Z,73.20
2018-11-26T18:30:31.730Z,72.20
2018-11-26T18:33:00.406Z,72.60
2018-11-26T18:35:29.119Z,72.80
2018-11-26T18:37:57.804Z,73.10
2018-11-26T18:40:26.482Z,73.20
2018-11-26T18:42:55.162Z,73.10
2018-11-26T18:45:23.835Z,73.40
2018-11-26T18:47:52.507Z,73.30
2018-11-26T18:50:21.679Z,77.30
2018-11-26T18:52:50.817Z,79.40
2018-11-26T18:55:19.824Z,77.00
2018-11-26T18:57:48.502Z,70.00
2018-11-26T19:00:24.542Z,69.00
2018-11-26T19:02:53.871Z,70.00
2018-11-26T19:05:22.595Z,70.80
2018-11-26T19:07:51.305Z,71.00
2018-11-26T19:10:22.056Z,71.60
2018-11-26T19:12:53.628Z,71.20
2018-11-26T19:15:26.504Z,72.10
2018-11-26T19:17:57.543Z,72.70
2018-11-26T19:20:26.222Z,72.50
2018-11-26T19:22:54.899Z,72.30
2018-11-26T19:25:23.602Z,72.30
2018-11-26T19:27:52.382Z,72.30
2018-11-26T19:30:23.261Z,72.50
2018-11-26T19:32:49.759Z,72.80
2018-11-26T19:35:18.423Z,72.30
2018-11-26T19:37:47.159Z,72.00
2018-11-26T19:40:16.610Z,71.90
2018-11-26T19:42:46.139Z,71.80
2018-11-26T19:45:20.139Z,71.80
2018-11-26T19:47:48.823Z,71.70
2018-11-26T19:50:19.388Z,71.60
2018-11-26T19:52:49.410Z,71.40
2018-11-26T19:55:19.439Z,71.40
2018-11-26T19:57:48.143Z,71.70
2018-11-26T20:00:18.230Z,72.30
2018-11-26T20:02:48.661Z,71.60
2018-11-26T20:05:24.814Z,71.90
2018-11-26T20:07:53.508Z,71.90
2018-11-26T20:10:22.187Z,71.60
2018-11-26T20:12:50.871Z,71.70
2018-11-26T20:15:19.580Z,71.80
2018-11-26T20:17:48.272Z,71.80
2018-11-26T20:20:16.959Z,71.80
2018-11-26T20:22:45.659Z,72.00
2018-11-26T20:25:14.730Z,72.00
2018-11-26T20:27:43.590Z,72.10
2018-11-26T20:30:14.527Z,72.10
2018-11-26T20:32:44.935Z,72.30
2018-11-26T20:35:13.713Z,72.20
2018-11-26T20:37:42.416Z,72.40
2018-11-26T20:40:15.455Z,72.40
2018-11-26T20:42:47.928Z,72.60
2018-11-26T20:45:16.902Z,73.20
2018-11-26T20:47:46.336Z,73.00
2018-11-26T20:50:17.583Z,73.10
2018-11-26T20:52:46.254Z,73.20
2018-11-26T20:55:17.340Z,72.90
2018-11-26T20:57:46.654Z,72.90
2018-11-26T21:00:17.423Z,72.80
2018-11-26T21:02:48.283Z,72.40
2018-11-26T21:05:16.998Z,72.50
2018-11-26T21:07:45.687Z,72.60
2018-11-26T21:10:15.363Z,72.90
2018-11-26T21:12:44.191Z,72.90
2018-11-26T21:15:15.000Z,72.80
2018-11-26T21:17:45.219Z,72.70
2018-11-26T21:20:18.746Z,72.50
2018-11-26T21:22:47.448Z,72.70
2018-11-26T21:25:16.810Z,72.50
2018-11-26T21:27:45.487Z,72.80
2018-11-26T21:30:16.275Z,72.90
2018-11-26T21:32:44.973Z,73.00
2018-11-26T21:35:15.760Z,73.10
2018-11-26T21:37:45.796Z,74.30
2018-11-26T21:40:20.238Z,73.60
2018-11-26T21:42:44.299Z,73.40
2018-11-26T21:45:15.660Z,73.30
2018-11-26T21:47:44.323Z,73.30
2018-11-26T21:50:13.871Z,73.30
2018-11-26T21:52:42.608Z,73.20
2018-11-26T21:55:13.454Z,74.40
2018-11-26T21:57:42.274Z,73.20
2018-11-26T22:00:19.459Z,73.70
2018-11-26T22:02:48.443Z,73.10
2018-11-26T22:05:17.767Z,73.50
2018-11-26T22:07:46.443Z,73.10
2018-11-26T22:10:16.367Z,73.10
2018-11-26T22:12:47.355Z,73.00
2018-11-26T22:15:16.063Z,73.40
2018-11-26T22:17:44.763Z,74.10
2018-11-26T22:20:18.842Z,73.90
2018-11-26T22:22:47.569Z,74.10
2018-11-26T22:25:16.264Z,73.70
2018-11-26T22:27:45.131Z,73.50
2018-11-26T22:30:14.835Z,73.40
2018-11-26T22:32:43.538Z,74.40
2018-11-26T22:35:12.275Z,74.80
2018-11-26T22:37:40.942Z,75.60
2018-11-26T22:40:11.147Z,75.60
2018-11-26T22:42:40.309Z,75.10
2018-11-26T22:45:11.696Z,74.30
2018-11-26T22:47:40.460Z,73.40
2018-11-26T22:50:11.023Z,73.60
2018-11-26T22:52:39.930Z,73.70
2018-11-26T22:55:10.751Z,73.80
2018-11-26T22:57:39.644Z,74.10
2018-11-26T23:00:48.938Z,74.70
2018-11-26T23:03:19.774Z,74.90
2018-11-26T23:05:48.494Z,74.40
2018-11-26T23:08:17.223Z,74.10
2018-11-26T23:10:45.950Z,74.50
2018-11-26T23:13:14.700Z,74.70
2018-11-26T23:15:43.402Z,74.60
2018-11-26T23:18:12.115Z,74.60
2018-11-26T23:20:40.784Z,74.60
2018-11-26T23:23:09.512Z,74.60
2018-11-26T23:25:38.667Z,76.20
2018-11-26T23:28:07.384Z,76.30
2018-11-26T23:30:36.062Z,74.60
2018-11-26T23:33:05.878Z,74.10
2018-11-26T23:35:35.359Z,73.60
2018-11-26T23:38:04.153Z,74.10
2018-11-26T23:40:34.129Z,73.40
2018-11-26T23:43:01.588Z,73.60
2018-11-26T23:45:30.266Z,74.10
2018-11-26T23:47:58.953Z,74.00
2018-11-26T23:50:27.627Z,74.00
2018-11-26T23:52:56.320Z,74.00
2018-11-26T23:55:25.279Z,74.70
2018-11-26T23:57:53.958Z,74.70
